Time;durP1;ratioP1;P1;durP2;ratioP2;P2;SDS_P1;SDS_P2;PMS_P1;PMS_P2;Temp;Humidity;BMP_temperature;BMP_pressure;BME280_temperature;BME280_humidity;BME280_pressure;Samples;Min_cycle;Max_cycle;Signal;HPM_P1;HPM_P2
2022/01/18 00:00:46;;;;;;;8.00;6.47;;;5.90;94.40;;;;;;5101570;28;20643;-45
2022/01/18 00:03:12;;;;;;;6.83;5.97;;;5.90;94.50;;;;;;5099687;28;20427;-45
2022/01/18 00:05:38;;;;;;;6.20;5.30;;;5.90;94.50;;;;;;5102168;28;20445;-44
2022/01/18 00:08:04;;;;;;;8.73;6.33;;;5.90;94.50;;;;;;5099503;28;20872;-45
2022/01/18 00:10:32;;;;;;;7.30;6.30;;;5.90;94.50;;;;;;5099779;28;20437;-45
2022/01/18 00:15:42;;;;;;;7.93;5.97;;;5.90;94.40;;;;;;5099137;28;20433;-45
2022/01/18 00:18:13;;;;;;;7.83;6.23;;;5.90;94.40;;;;;;5099719;28;20409;-45
2022/01/18 00:21:10;;;;;;;7.73;6.67;;;5.90;94.40;;;;;;5099055;28;20422;-45
2022/01/18 00:23:37;;;;;;;6.93;5.93;;;6.00;94.50;;;;;;5099354;28;20675;-45
2022/01/18 00:26:05;;;;;;;6.90;6.07;;;6.00;94.50;;;;;;5118034;28;20422;-45
2022/01/18 00:28:32;;;;;;;7.80;6.23;;;5.90;94.40;;;;;;5119641;28;20483;-45
2022/01/18 00:36:22;;;;;;;8.40;6.50;;;6.00;94.40;;;;;;5119243;28;20446;-45
2022/01/18 00:38:50;;;;;;;7.63;6.67;;;6.00;94.40;;;;;;5119414;28;20421;-44
2022/01/18 00:41:20;;;;;;;9.00;6.90;;;6.00;94.50;;;;;;5119378;28;20417;-45
2022/01/18 00:43:46;;;;;;;8.40;6.90;;;6.00;94.60;;;;;;5101759;28;20411;-45
2022/01/18 00:46:13;;;;;;;8.00;7.10;;;6.10;94.60;;;;;;5119298;28;20410;-45
2022/01/18 00:48:42;;;;;;;8.27;7.07;;;6.10;94.50;;;;;;5119275;28;20433;-45
2022/01/18 00:51:12;;;;;;;9.47;7.00;;;6.00;94.50;;;;;;5119115;28;20565;-45
2022/01/18 00:53:39;;;;;;;7.70;5.90;;;6.00;94.60;;;;;;5118875;28;20476;-44
2022/01/18 00:58:41;;;;;;;6.33;5.73;;;6.00;94.60;;;;;;5118812;28;20782;-44
2022/01/18 01:01:08;;;;;;;7.40;6.60;;;6.00;94.70;;;;;;5110057;28;20525;-45
2022/01/18 01:03:34;;;;;;;7.80;6.70;;;6.00;94.70;;;;;;5098051;28;20906;-45
2022/01/18 01:06:00;;;;;;;7.30;5.77;;;6.00;94.70;;;;;;5098633;28;20422;-44
2022/01/18 01:08:26;;;;;;;6.90;6.20;;;6.00;94.80;;;;;;5098902;28;20419;-44
2022/01/18 01:10:52;;;;;;;7.70;6.83;;;6.00;94.80;;;;;;5098467;28;20426;-44
2022/01/18 01:13:18;;;;;;;7.03;6.33;;;6.00;94.80;;;;;;5098533;28;20590;-45
2022/01/18 01:16:05;;;;;;;7.57;6.80;;;6.10;94.80;;;;;;5098220;28;20441;-45
2022/01/18 01:32:49;;;;;;;7.90;6.40;;;6.10;94.60;;;;;;5096641;28;20559;-45
2022/01/18 01:43:50;;;;;;;8.63;7.00;;;6.10;94.60;;;;;;5096476;28;20184;-45
2022/01/18 01:45:40;;;;;;;8.53;6.40;;;6.20;94.60;;;;;;5083883;28;20504;-45
2022/01/18 01:48:06;;;;;;;7.57;6.37;;;6.20;94.60;;;;;;5097923;28;20856;-45
2022/01/18 01:50:47;;;;;;;7.73;6.93;;;6.20;94.60;;;;;;5097541;28;20747;-45
2022/01/18 01:53:15;;;;;;;9.10;7.37;;;6.20;94.60;;;;;;5097443;28;20458;-45
2022/01/18 01:55:41;;;;;;;7.93;6.63;;;6.20;94.60;;;;;;5098106;28;20485;-45
2022/01/18 01:58:07;;;;;;;8.50;7.60;;;6.20;94.70;;;;;;5097747;28;20754;-45
2022/01/18 02:00:33;;;;;;;9.10;7.47;;;6.20;94.70;;;;;;5097637;28;20423;-45
2022/01/18 02:02:58;;;;;;;7.10;6.40;;;6.20;94.70;;;;;;5097502;28;20755;-45
2022/01/18 02:05:24;;;;;;;9.93;7.77;;;6.20;94.80;;;;;;5097414;28;20743;-45
2022/01/18 02:07:51;;;;;;;8.70;7.07;;;6.20;94.80;;;;;;5097553;28;20173;-45
2022/01/18 02:10:17;;;;;;;8.40;7.60;;;6.20;94.80;;;;;;5079991;28;20908;-49
2022/01/18 02:12:45;;;;;;;7.93;6.43;;;6.20;94.80;;;;;;5097113;28;20442;-45
2022/01/18 02:15:18;;;;;;;9.80;7.60;;;6.20;94.70;;;;;;5097951;28;20473;-45
2022/01/18 02:23:23;;;;;;;9.67;8.07;;;6.20;94.80;;;;;;5097201;28;20425;-45
2022/01/18 02:25:49;;;;;;;8.40;7.30;;;6.30;94.90;;;;;;5097602;28;20419;-44
2022/01/18 02:28:16;;;;;;;8.40;6.70;;;6.30;94.90;;;;;;5079637;28;20240;-44
2022/01/18 02:30:44;;;;;;;7.13;6.43;;;6.30;94.90;;;;;;5097740;28;20197;-44
2022/01/18 02:33:10;;;;;;;8.23;7.00;;;6.30;94.90;;;;;;5097162;28;20470;-44
2022/01/18 02:35:36;;;;;;;8.97;7.27;;;6.30;94.90;;;;;;5079687;28;20836;-44
2022/01/18 02:38:03;;;;;;;10.60;8.10;;;6.30;94.90;;;;;;5097207;28;20716;-43
2022/01/18 02:40:30;;;;;;;8.00;6.60;;;6.30;95.00;;;;;;5097752;28;20426;-44
2022/01/18 02:43:00;;;;;;;9.20;7.30;;;6.30;95.00;;;;;;5097093;28;20433;-44
2022/01/18 02:45:26;;;;;;;10.53;8.33;;;6.30;95.00;;;;;;5097044;28;20418;-44
2022/01/18 02:47:52;;;;;;;9.10;7.87;;;6.30;95.10;;;;;;5097721;28;20435;-44
2022/01/18 02:50:18;;;;;;;9.57;8.57;;;6.30;95.20;;;;;;5097232;28;20411;-45
2022/01/18 02:56:08;;;;;;;10.63;8.87;;;6.30;95.30;;;;;;5100767;28;20533;-44
2022/01/18 02:58:35;;;;;;;13.73;8.33;;;6.30;95.30;;;;;;5101281;28;20415;-44
2022/01/18 03:03:35;;;;;;;12.30;8.93;;;6.30;95.40;;;;;;5100471;28;20476;-44
2022/01/18 03:06:01;;;;;;;10.33;9.10;;;6.30;95.40;;;;;;5100157;28;20415;-44
2022/01/18 03:08:33;;;;;;;11.70;9.73;;;6.30;95.40;;;;;;5100981;28;20491;-44
2022/01/18 03:10:59;;;;;;;11.53;9.43;;;6.30;95.40;;;;;;5101052;28;20505;-43
2022/01/18 03:13:24;;;;;;;14.10;9.07;;;6.30;95.40;;;;;;5100578;28;20618;-43
2022/01/18 03:15:50;;;;;;;17.30;12.27;;;6.30;95.40;;;;;;5100933;28;20176;-44
2022/01/18 03:18:16;;;;;;;15.20;13.10;;;6.30;95.30;;;;;;5100444;28;20176;-44
2022/01/18 03:20:41;;;;;;;17.63;12.87;;;6.30;95.30;;;;;;5101198;28;20192;-44
2022/01/18 03:23:13;;;;;;;20.23;14.10;;;6.30;95.30;;;;;;5100172;28;20165;-44
2022/01/18 03:25:51;;;;;;;17.33;12.13;;;6.30;95.20;;;;;;5100310;28;20177;-44
2022/01/18 03:28:17;;;;;;;21.33;13.70;;;6.40;95.20;;;;;;5100496;28;20748;-44
2022/01/18 03:30:47;;;;;;;17.20;12.10;;;6.40;95.20;;;;;;5100157;28;20502;-44
2022/01/18 03:33:16;;;;;;;14.77;11.00;;;6.40;95.20;;;;;;5100239;28;20451;-44
2022/01/18 03:35:43;;;;;;;13.17;11.70;;;6.40;95.20;;;;;;5100316;28;20482;-44
2022/01/18 03:38:09;;;;;;;12.73;10.17;;;6.40;95.20;;;;;;5099628;28;20464;-44
2022/01/18 03:40:36;;;;;;;13.30;11.27;;;6.40;95.20;;;;;;5099453;28;20430;-44
2022/01/18 03:43:06;;;;;;;13.83;11.47;;;6.40;95.30;;;;;;5099290;28;20790;-44
2022/01/18 03:45:41;;;;;;;13.03;11.07;;;6.40;95.20;;;;;;5092008;28;20673;-44
2022/01/18 03:48:11;;;;;;;13.50;10.60;;;6.40;95.20;;;;;;5099931;28;20406;-44
2022/01/18 03:50:37;;;;;;;14.47;10.80;;;6.40;95.20;;;;;;5100122;28;20571;-44
2022/01/18 03:53:02;;;;;;;13.37;10.50;;;6.40;95.20;;;;;;5099963;28;20840;-44
2022/01/18 03:55:28;;;;;;;10.50;9.10;;;6.40;95.20;;;;;;5099933;28;20175;-44
2022/01/18 03:57:54;;;;;;;13.53;10.37;;;6.40;95.20;;;;;;5082028;28;20586;-45
2022/01/18 04:00:23;;;;;;;12.43;9.80;;;6.40;95.20;;;;;;5081369;28;20475;-45
2022/01/18 04:02:49;;;;;;;12.83;10.80;;;6.40;95.20;;;;;;5099995;28;20426;-45
2022/01/18 04:05:16;;;;;;;11.20;8.93;;;6.50;95.20;;;;;;5099173;28;20415;-45
2022/01/18 04:07:42;;;;;;;11.10;9.03;;;6.50;95.20;;;;;;5099591;28;20426;-45
2022/01/18 04:10:08;;;;;;;12.10;10.00;;;6.50;95.20;;;;;;5099556;28;20411;-45
2022/01/18 04:12:34;;;;;;;11.80;10.10;;;6.50;95.20;;;;;;5099695;28;20432;-45
2022/01/18 04:15:02;;;;;;;14.87;10.43;;;6.50;95.10;;;;;;5099397;28;20462;-45
2022/01/18 04:17:45;;;;;;;16.23;10.70;;;6.50;95.20;;;;;;5081661;28;20422;-45
2022/01/18 04:31:01;;;;;;;13.70;9.33;;;6.40;95.30;;;;;;5098807;28;20427;-45
2022/01/18 04:33:26;;;;;;;12.47;10.53;;;6.50;95.40;;;;;;5098917;28;20573;-45
2022/01/18 04:35:52;;;;;;;13.03;9.50;;;6.50;95.40;;;;;;5098526;28;20510;-45
2022/01/18 04:38:18;;;;;;;14.83;10.80;;;6.50;95.40;;;;;;5098936;28;20563;-45
2022/01/18 04:40:45;;;;;;;10.43;9.33;;;6.50;95.40;;;;;;5098955;28;20264;-45
2022/01/18 04:43:27;;;;;;;12.30;10.20;;;6.50;95.30;;;;;;5099197;28;20177;-45
2022/01/18 04:48:40;;;;;;;12.60;10.20;;;6.50;95.30;;;;;;5098480;28;20421;-45
2022/01/18 04:51:10;;;;;;;12.27;10.10;;;6.50;95.30;;;;;;5080508;28;20434;-45
2022/01/18 04:53:50;;;;;;;13.13;11.40;;;6.50;95.30;;;;;;5098863;28;20872;-45
2022/01/18 04:56:19;;;;;;;12.70;10.33;;;6.50;95.30;;;;;;5096897;28;20411;-45
2022/01/18 04:58:44;;;;;;;13.43;10.73;;;6.50;95.30;;;;;;5096565;28;20547;-44
2022/01/18 05:01:12;;;;;;;12.50;10.80;;;6.50;95.30;;;;;;5096486;28;20509;-44
2022/01/18 05:03:37;;;;;;;14.67;10.90;;;6.50;95.40;;;;;;5095086;28;20694;-47
2022/01/18 05:06:09;;;;;;;18.03;13.20;;;6.50;95.50;;;;;;5095642;28;20415;-48
2022/01/18 05:08:36;;;;;;;14.37;12.53;;;6.50;95.50;;;;;;5095863;28;20178;-48
2022/01/18 05:11:03;;;;;;;17.97;13.07;;;6.50;95.60;;;;;;5101318;28;20429;-47
2022/01/18 05:21:29;;;;;;;17.90;13.77;;;6.50;95.50;;;;;;5117976;28;20179;-47
2022/01/18 05:23:55;;;;;;;17.70;13.47;;;6.50;95.50;;;;;;5117793;28;20412;-48
2022/01/18 05:26:21;;;;;;;19.27;13.93;;;6.50;95.50;;;;;;5117777;28;20426;-48
2022/01/18 05:28:47;;;;;;;22.20;15.47;;;6.50;95.60;;;;;;5117731;28;20934;-47
2022/01/18 05:31:15;;;;;;;18.03;14.47;;;6.50;95.60;;;;;;5116620;28;20856;-47
2022/01/18 05:33:42;;;;;;;19.13;15.73;;;6.50;95.60;;;;;;5116006;28;20218;-47
2022/01/18 05:36:09;;;;;;;17.10;13.83;;;6.50;95.70;;;;;;5116131;28;20750;-47
2022/01/18 05:38:35;;;;;;;18.70;14.73;;;6.40;95.70;;;;;;5116496;28;21065;-48
2022/01/18 05:41:05;;;;;;;22.57;15.93;;;6.40;95.70;;;;;;5116532;28;20749;-47
2022/01/18 05:43:31;;;;;;;20.27;14.53;;;6.40;95.80;;;;;;5116777;28;20414;-47
2022/01/18 05:45:57;;;;;;;18.43;14.37;;;6.40;95.80;;;;;;5116957;28;20429;-47
2022/01/18 05:48:23;;;;;;;18.60;14.67;;;6.40;95.90;;;;;;5117800;28;20505;-47
2022/01/18 05:50:49;;;;;;;19.10;14.60;;;6.30;95.90;;;;;;5117347;28;20187;-47
2022/01/18 05:53:15;;;;;;;19.50;14.73;;;6.30;96.00;;;;;;5117798;28;20418;-47
2022/01/18 05:55:41;;;;;;;20.97;14.50;;;6.30;96.00;;;;;;5117645;28;20421;-47
2022/01/18 05:58:07;;;;;;;24.33;14.20;;;6.30;96.00;;;;;;5117171;28;20445;-47
2022/01/18 06:00:33;;;;;;;20.63;15.50;;;6.30;96.00;;;;;;5115797;28;20490;-47
2022/01/18 06:03:01;;;;;;;18.23;15.93;;;6.30;96.00;;;;;;5115893;28;20264;-47
2022/01/18 06:08:12;;;;;;;20.33;14.57;;;6.30;96.00;;;;;;5115014;28;20932;-47
2022/01/18 06:10:38;;;;;;;20.20;15.60;;;6.30;96.00;;;;;;5114134;28;20978;-48
2022/01/18 06:13:07;;;;;;;19.60;14.37;;;6.30;96.00;;;;;;5113326;28;20413;-47
2022/01/18 06:15:33;;;;;;;22.93;16.00;;;6.30;96.00;;;;;;5114098;28;20475;-47
2022/01/18 06:17:59;;;;;;;20.50;14.03;;;6.30;96.00;;;;;;5113919;28;20406;-47
2022/01/18 06:20:25;;;;;;;20.53;15.07;;;6.20;95.90;;;;;;5113353;28;20432;-47
2022/01/18 06:22:51;;;;;;;17.63;14.10;;;6.20;96.00;;;;;;5095573;28;20186;-47
2022/01/18 06:25:21;;;;;;;17.80;14.37;;;6.20;95.90;;;;;;5113615;28;20245;-47
2022/01/18 06:27:48;;;;;;;20.60;14.93;;;6.20;96.00;;;;;;5110993;28;20418;-47
2022/01/18 06:30:14;;;;;;;28.63;15.63;;;6.20;96.00;;;;;;5096535;28;20418;-47
2022/01/18 06:32:43;;;;;;;22.50;14.93;;;6.20;96.00;;;;;;5096595;28;20802;-47
2022/01/18 06:35:10;;;;;;;19.97;15.33;;;6.10;95.90;;;;;;5098102;28;20907;-47
2022/01/18 06:37:35;;;;;;;20.07;14.47;;;6.10;96.00;;;;;;5097235;28;20430;-47
2022/01/18 06:40:03;;;;;;;19.00;14.47;;;6.10;96.00;;;;;;5097735;28;20411;-48
2022/01/18 06:42:29;;;;;;;18.73;13.80;;;6.10;96.10;;;;;;5096812;28;20200;-48
2022/01/18 06:44:55;;;;;;;20.33;14.03;;;6.00;96.40;;;;;;5096246;28;20491;-47
2022/01/18 06:47:21;;;;;;;22.93;15.20;;;6.00;96.10;;;;;;5077378;28;20841;-47
2022/01/18 06:49:48;;;;;;;18.47;13.90;;;6.00;96.20;;;;;;5094883;28;20580;-47
2022/01/18 06:52:14;;;;;;;23.97;14.67;;;6.00;96.20;;;;;;5060518;28;20173;-47
2022/01/18 06:54:40;;;;;;;20.87;14.90;;;6.00;96.30;;;;;;5076865;28;20881;-47
2022/01/18 06:57:08;;;;;;;24.27;15.60;;;5.90;96.20;;;;;;5075521;28;20507;-48
2022/01/18 06:59:34;;;;;;;18.27;14.40;;;5.90;96.20;;;;;;5104237;28;20181;-49
2022/01/18 07:02:00;;;;;;;22.93;15.67;;;5.90;96.30;;;;;;5096088;28;20418;-47
2022/01/18 07:04:26;;;;;;;19.27;14.90;;;5.90;96.30;;;;;;5096912;28;20422;-46
2022/01/18 07:06:52;;;;;;;20.70;14.67;;;5.90;96.30;;;;;;5097461;28;20419;-46
2022/01/18 07:09:23;;;;;;;19.00;14.60;;;5.90;96.30;;;;;;5098160;28;20426;-46
2022/01/18 07:11:50;;;;;;;21.17;15.27;;;5.90;96.30;;;;;;5098562;28;20415;-46
2022/01/18 07:14:16;;;;;;;21.17;14.80;;;5.90;96.20;;;;;;5097244;28;20466;-46
2022/01/18 07:16:41;;;;;;;24.90;16.20;;;5.90;96.10;;;;;;5098066;28;20695;-46
2022/01/18 07:19:07;;;;;;;21.10;14.70;;;5.90;96.10;;;;;;5097425;28;20308;-46
2022/01/18 07:21:33;;;;;;;20.90;13.93;;;5.90;96.10;;;;;;5079771;28;20426;-46
2022/01/18 07:24:14;;;;;;;20.00;14.60;;;5.90;96.10;;;;;;5079161;28;20436;-46
2022/01/18 07:26:40;;;;;;;19.23;13.27;;;5.80;96.00;;;;;;5081239;28;20176;-48
2022/01/18 07:29:06;;;;;;;20.70;14.20;;;5.80;95.90;;;;;;5106235;28;20782;-46
2022/01/18 07:31:31;;;;;;;21.80;13.67;;;5.80;95.90;;;;;;5117788;28;20183;-46
2022/01/18 07:33:58;;;;;;;19.50;14.37;;;5.80;95.90;;;;;;5118463;28;20286;-46
2022/01/18 07:36:23;;;;;;;18.23;12.40;;;5.80;95.90;;;;;;5117958;28;20243;-46
2022/01/18 07:38:49;;;;;;;17.10;13.47;;;5.80;95.80;;;;;;5118116;28;20887;-46
2022/01/18 07:41:14;;;;;;;20.50;13.40;;;5.80;95.80;;;;;;5116530;28;20270;-46
2022/01/18 07:43:41;;;;;;;16.07;13.20;;;5.80;95.80;;;;;;5117365;28;20184;-46
2022/01/18 07:46:07;;;;;;;17.83;12.70;;;5.80;95.70;;;;;;5098584;28;20176;-47
2022/01/18 07:48:32;;;;;;;18.17;12.33;;;5.90;95.70;;;;;;5118085;28;20425;-47
2022/01/18 07:50:58;;;;;;;17.50;12.70;;;5.90;95.60;;;;;;5118879;28;20430;-47
2022/01/18 07:53:25;;;;;;;16.40;11.63;;;6.00;95.50;;;;;;5118685;28;20887;-47
2022/01/18 07:55:51;;;;;;;16.90;11.87;;;6.10;95.40;;;;;;5119790;28;20167;-47
2022/01/18 07:58:17;;;;;;;16.13;12.07;;;6.20;95.30;;;;;;5119325;28;20435;-47
2022/01/18 08:00:43;;;;;;;19.37;12.30;;;6.20;95.20;;;;;;5118682;28;20421;-47
2022/01/18 08:03:09;;;;;;;18.10;11.40;;;6.30;95.00;;;;;;5119345;28;20422;-47
2022/01/18 08:05:37;;;;;;;15.10;11.83;;;6.50;94.80;;;;;;5118614;28;20699;-47
2022/01/18 08:08:05;;;;;;;18.50;12.90;;;6.60;94.70;;;;;;5118042;28;20503;-47
2022/01/18 08:10:31;;;;;;;16.40;11.57;;;6.70;94.50;;;;;;5131614;27;20449;-47
2022/01/18 08:13:00;;;;;;;16.43;11.53;;;6.90;94.40;;;;;;5120274;27;20709;-47
2022/01/18 08:15:28;;;;;;;15.37;12.03;;;7.00;94.20;;;;;;5137727;27;20414;-47
2022/01/18 08:17:55;;;;;;;17.80;11.67;;;7.20;94.10;;;;;;5138612;27;20417;-47
2022/01/18 08:20:21;;;;;;;17.87;13.10;;;7.40;93.80;;;;;;5137010;27;20419;-47
2022/01/18 08:22:47;;;;;;;16.60;11.73;;;7.60;93.60;;;;;;5137994;27;20407;-47
2022/01/18 08:25:15;;;;;;;15.73;11.43;;;7.90;93.30;;;;;;5136878;27;20466;-47
2022/01/18 08:27:45;;;;;;;15.87;11.83;;;8.20;93.10;;;;;;5139263;27;20417;-47
2022/01/18 08:30:12;;;;;;;14.90;10.80;;;8.80;92.70;;;;;;5138392;27;20471;-47
2022/01/18 08:32:38;;;;;;;16.90;12.67;;;9.30;91.90;;;;;;5137577;27;20405;-47
2022/01/18 08:35:05;;;;;;;15.30;11.30;;;9.80;91.30;;;;;;5136077;27;20601;-47
2022/01/18 08:37:31;;;;;;;15.17;11.37;;;10.50;90.30;;;;;;5137694;27;20485;-47
2022/01/18 08:39:57;;;;;;;13.57;11.47;;;11.10;88.90;;;;;;5135727;27;20811;-47
2022/01/18 08:42:23;;;;;;;15.23;11.47;;;11.90;87.60;;;;;;5135383;27;20179;-47
2022/01/18 08:44:50;;;;;;;16.70;10.70;;;12.60;84.60;;;;;;5117295;27;20171;-47
2022/01/18 08:47:17;;;;;;;16.03;10.67;;;13.20;81.80;;;;;;5114781;27;20439;-47
2022/01/18 08:49:43;;;;;;;16.33;11.17;;;13.50;78.80;;;;;;5133580;27;21030;-47
2022/01/18 08:52:10;;;;;;;12.97;11.53;;;13.70;76.60;;;;;;5134056;27;20484;-47
2022/01/18 08:54:35;;;;;;;13.67;11.93;;;14.00;75.20;;;;;;5133817;27;20475;-47
2022/01/18 08:57:02;;;;;;;11.17;9.77;;;14.10;73.70;;;;;;5113480;27;20412;-47
2022/01/18 08:59:29;;;;;;;15.47;12.13;;;14.10;73.10;;;;;;5133090;27;20189;-47
2022/01/18 09:01:54;;;;;;;14.40;10.97;;;14.60;73.00;;;;;;5134052;27;20409;-47
2022/01/18 09:04:20;;;;;;;13.70;10.90;;;15.10;70.90;;;;;;5136357;27;20477;-47
2022/01/18 09:06:49;;;;;;;12.47;10.30;;;15.50;68.40;;;;;;5136833;27;20277;-47
2022/01/18 09:09:17;;;;;;;12.37;11.07;;;15.80;66.70;;;;;;5137056;27;20572;-47
2022/01/18 09:11:43;;;;;;;13.27;10.10;;;15.90;64.60;;;;;;5135830;27;20420;-47
2022/01/18 09:14:09;;;;;;;10.60;9.50;;;15.90;63.40;;;;;;5118470;27;20475;-47
2022/01/18 09:16:35;;;;;;;11.27;10.17;;;16.10;63.40;;;;;;5136117;27;20625;-47
2022/01/18 09:19:01;;;;;;;10.37;9.20;;;16.60;62.60;;;;;;5117357;27;20417;-47
2022/01/18 09:21:27;;;;;;;12.83;10.37;;;17.30;60.40;;;;;;5136512;27;20421;-47
2022/01/18 09:23:53;;;;;;;14.20;10.43;;;17.60;58.40;;;;;;5137218;27;20184;-47
2022/01/18 09:26:19;;;;;;;11.70;9.87;;;17.60;57.10;;;;;;5137190;27;20444;-47
2022/01/18 09:28:45;;;;;;;12.60;10.10;;;17.40;56.70;;;;;;5126077;27;20878;-47
2022/01/18 09:31:10;;;;;;;12.27;10.70;;;17.30;56.70;;;;;;5114876;28;20491;-47
2022/01/18 09:33:36;;;;;;;9.43;8.50;;;17.10;56.30;;;;;;5115733;28;20200;-47
2022/01/18 09:36:03;;;;;;;9.30;8.30;;;16.70;56.40;;;;;;5115883;28;20168;-47
2022/01/18 09:38:28;;;;;;;10.60;9.00;;;17.10;58.40;;;;;;5117242;28;20409;-42
2022/01/18 09:40:54;;;;;;;9.57;7.50;;;18.00;57.20;;;;;;5115657;28;20424;-40
2022/01/18 09:43:20;;;;;;;11.70;7.50;;;19.20;55.00;;;;;;5116157;28;20176;-40
2022/01/18 09:45:46;;;;;;;8.43;7.63;;;20.50;53.00;;;;;;5115792;28;20737;-40
2022/01/18 09:48:13;;;;;;;7.33;6.50;;;22.20;50.80;;;;;;5116148;28;20213;-42
2022/01/18 09:50:41;;;;;;;6.17;5.57;;;24.00;48.00;;;;;;5114827;28;20275;-40
2022/01/18 09:53:12;;;;;;;6.77;6.07;;;25.50;44.80;;;;;;5096092;28;20509;-43
2022/01/18 09:55:41;;;;;;;7.53;4.90;;;26.70;41.00;;;;;;5115120;28;20414;-41
2022/01/18 09:58:09;;;;;;;8.10;5.40;;;26.40;38.40;;;;;;5098217;28;20420;-41
2022/01/18 10:00:43;;;;;;;6.10;5.00;;;25.00;38.00;;;;;;5117188;28;20433;-40
2022/01/18 10:03:26;;;;;;;6.83;5.57;;;23.70;38.50;;;;;;5117667;28;20498;-43
2022/01/18 10:05:51;;;;;;;6.10;4.53;;;23.80;39.10;;;;;;5121596;28;20440;-42
2022/01/18 10:08:19;;;;;;;9.23;5.00;;;24.50;39.00;;;;;;5120233;28;20515;-43
2022/01/18 10:10:50;;;;;;;8.83;4.70;;;25.60;38.00;;;;;;5118082;28;20431;-41
2022/01/18 10:13:24;;;;;;;6.57;5.97;;;26.50;37.00;;;;;;5120328;28;20418;-41
2022/01/18 10:16:23;;;;;;;7.47;5.80;;;27.60;35.50;;;;;;5119406;28;20486;-44
2022/01/18 10:18:53;;;;;;;8.90;6.33;;;28.70;33.90;;;;;;5117783;28;20402;-41
2022/01/18 10:21:30;;;;;;;8.33;7.53;;;28.10;32.90;;;;;;5116692;28;20703;-42
2022/01/18 10:24:17;;;;;;;7.33;6.40;;;26.50;33.80;;;;;;5117009;28;20507;-39
2022/01/18 10:26:44;;;;;;;8.23;7.43;;;26.20;34.40;;;;;;5117697;28;20482;-41
2022/01/18 10:29:14;;;;;;;8.23;7.13;;;26.30;34.00;;;;;;5112467;27;20457;-40
2022/01/18 10:31:57;;;;;;;7.00;6.30;;;25.80;34.10;;;;;;5137839;27;20452;-41
2022/01/18 10:37:00;;;;;;;7.20;6.50;;;25.80;35.10;;;;;;5140025;27;20515;-41
2022/01/18 10:39:29;;;;;;;6.60;6.00;;;26.50;34.70;;;;;;5141702;27;20401;-43
2022/01/18 10:41:55;;;;;;;7.67;6.87;;;26.30;34.10;;;;;;5141114;27;20195;-39
2022/01/18 10:44:23;;;;;;;8.20;6.13;;;25.50;34.20;;;;;;5140922;27;20504;-40
2022/01/18 10:46:57;;;;;;;6.90;6.30;;;24.70;34.70;;;;;;5139561;27;20489;-40
2022/01/18 10:49:31;;;;;;;8.93;7.33;;;24.50;35.40;;;;;;5139000;27;20401;-42
2022/01/18 10:52:06;;;;;;;8.67;7.73;;;25.00;35.30;;;;;;5137898;27;20878;-41
2022/01/18 10:54:38;;;;;;;6.50;5.90;;;25.90;35.20;;;;;;5138049;27;20852;-40
2022/01/18 10:57:06;;;;;;;6.67;6.00;;;26.90;34.20;;;;;;5136812;27;20500;-42
2022/01/18 10:59:38;;;;;;;8.87;6.30;;;28.00;33.60;;;;;;5138834;27;20413;-42
2022/01/18 11:02:18;;;;;;;4.97;4.30;;;29.00;32.40;;;;;;5139886;27;20427;-41
2022/01/18 11:04:55;;;;;;;6.00;4.60;;;29.40;31.50;;;;;;5140714;27;20455;-43
2022/01/18 11:07:24;;;;;;;6.33;5.33;;;29.80;31.10;;;;;;5138851;27;20744;-41
2022/01/18 11:09:50;;;;;;;5.77;4.57;;;30.30;30.20;;;;;;5119994;27;20432;-42
2022/01/18 11:12:18;;;;;;;5.70;4.70;;;30.80;29.70;;;;;;5120051;27;20399;-41
2022/01/18 11:14:46;;;;;;;6.00;5.10;;;31.20;29.50;;;;;;5120452;28;20425;-41
2022/01/18 11:17:22;;;;;;;4.80;3.83;;;31.50;29.00;;;;;;5138187;27;20422;-44
2022/01/18 11:19:49;;;;;;;5.80;5.30;;;32.60;28.80;;;;;;5138415;27;20407;-44
2022/01/18 11:22:18;;;;;;;6.90;6.20;;;33.20;28.10;;;;;;5137495;27;20881;-43
2022/01/18 11:24:47;;;;;;;7.73;5.83;;;32.40;27.50;;;;;;5137427;27;20894;-41
2022/01/18 11:27:17;;;;;;;6.43;5.70;;;30.60;27.90;;;;;;5120588;27;20387;-41
2022/01/18 11:29:47;;;;;;;7.67;6.87;;;29.00;28.60;;;;;;5138304;27;20564;-40
2022/01/18 11:32:14;;;;;;;7.63;6.83;;;27.40;29.30;;;;;;5137370;27;20393;-42
2022/01/18 11:35:04;;;;;;;7.13;6.43;;;25.70;30.00;;;;;;5121076;27;20423;-42
2022/01/18 11:37:47;;;;;;;7.87;6.57;;;23.90;31.10;;;;;;5138395;27;20418;-40
2022/01/18 11:40:15;;;;;;;6.50;5.80;;;22.60;31.90;;;;;;5138983;27;20424;-40
2022/01/18 11:42:50;;;;;;;5.93;5.33;;;21.40;33.10;;;;;;5138413;27;20421;-41
2022/01/18 11:45:25;;;;;;;6.23;5.73;;;20.40;34.10;;;;;;5137926;27;20460;-40
2022/01/18 11:48:06;;;;;;;7.30;6.53;;;19.70;35.10;;;;;;5138521;27;20432;-41
2022/01/18 11:50:41;;;;;;;7.70;5.83;;;19.00;35.60;;;;;;5138617;27;20425;-40
2022/01/18 11:53:21;;;;;;;8.17;5.77;;;18.50;36.10;;;;;;5138013;27;20853;-40
2022/01/18 11:55:47;;;;;;;7.80;5.70;;;17.90;36.70;;;;;;5136484;27;20471;-41
2022/01/18 11:58:13;;;;;;;8.20;5.47;;;17.40;37.30;;;;;;5132636;27;20458;-42
2022/01/18 12:00:58;;;;;;;7.33;6.63;;;16.90;37.80;;;;;;5091629;28;20447;-40
2022/01/18 12:03:34;;;;;;;7.67;6.87;;;16.60;38.50;;;;;;5097203;28;20592;-40
2022/01/18 12:06:03;;;;;;;6.13;5.50;;;16.30;39.00;;;;;;5061902;28;20778;-43
2022/01/18 12:08:38;;;;;;;6.70;6.00;;;16.10;39.40;;;;;;5097639;28;20755;-40
2022/01/18 12:11:08;;;;;;;12.13;6.43;;;15.90;39.70;;;;;;5094706;28;20876;-40
2022/01/18 12:13:36;;;;;;;9.27;6.30;;;15.70;40.10;;;;;;5094204;28;20776;-42
2022/01/18 12:16:10;;;;;;;8.70;6.53;;;15.60;40.40;;;;;;5093594;28;20452;-40
2022/01/18 12:18:50;;;;;;;8.43;5.80;;;15.50;40.80;;;;;;5119405;27;20495;-41
2022/01/18 12:21:24;;;;;;;8.37;6.37;;;15.20;40.90;;;;;;5132946;27;20819;-42
2022/01/18 12:23:50;;;;;;;7.20;5.90;;;15.10;41.20;;;;;;5131933;27;20455;-41
2022/01/18 12:29:21;;;;;;;8.83;6.63;;;14.70;41.60;;;;;;5134193;27;20464;-42
2022/01/18 12:34:28;;;;;;;8.13;6.40;;;14.20;41.90;;;;;;5134591;27;20411;-40
2022/01/18 12:36:55;;;;;;;7.13;6.40;;;14.00;42.00;;;;;;5136588;27;20675;-39
2022/01/18 12:39:21;;;;;;;7.30;5.90;;;13.90;42.30;;;;;;5107904;28;20472;-39
2022/01/18 12:41:51;;;;;;;6.70;5.70;;;13.70;42.50;;;;;;5081545;28;20438;-40
2022/01/18 12:44:20;;;;;;;6.70;5.50;;;13.60;42.70;;;;;;5115112;28;20480;-39
2022/01/18 12:46:59;;;;;;;7.80;4.80;;;13.40;42.90;;;;;;5114542;28;20670;-39
2022/01/18 12:49:27;;;;;;;9.23;5.60;;;13.30;43.20;;;;;;5117442;28;20703;-39
2022/01/18 12:51:59;;;;;;;6.53;4.80;;;13.20;43.40;;;;;;5116601;28;20447;-39
2022/01/18 12:54:35;;;;;;;5.77;4.80;;;13.10;43.60;;;;;;5116264;28;20424;-40
2022/01/18 12:57:19;;;;;;;6.67;4.80;;;13.00;43.80;;;;;;5115936;28;20458;-40
2022/01/18 13:00:01;;;;;;;7.27;4.90;;;12.90;43.90;;;;;;5116328;28;20413;-40
2022/01/18 13:02:31;;;;;;;6.97;4.80;;;12.70;44.00;;;;;;5115971;28;20416;-42
2022/01/18 13:05:07;;;;;;;9.23;5.10;;;12.60;44.30;;;;;;5115002;28;20506;-41
2022/01/18 13:07:33;;;;;;;6.90;4.80;;;12.60;44.50;;;;;;5099514;28;20510;-41
2022/01/18 13:10:04;;;;;;;8.30;5.40;;;12.50;44.70;;;;;;5116120;28;20691;-42
2022/01/18 13:12:31;;;;;;;6.47;5.47;;;12.50;44.90;;;;;;5113742;28;20486;-44
2022/01/18 13:14:59;;;;;;;6.83;5.57;;;12.50;45.10;;;;;;5114508;28;20497;-39
2022/01/18 13:23:45;;;;;;;7.77;5.63;;;12.80;45.30;;;;;;5115283;28;20502;-40
2022/01/18 13:26:11;;;;;;;9.87;6.40;;;13.10;45.30;;;;;;5114981;28;20443;-40
2022/01/18 13:28:39;;;;;;;7.30;5.83;;;13.50;45.10;;;;;;5114696;28;20477;-40
2022/01/18 13:31:18;;;;;;;7.47;4.93;;;13.90;44.90;;;;;;5114837;28;20168;-40
2022/01/18 13:33:55;;;;;;;6.40;5.70;;;14.80;44.80;;;;;;5115011;28;20438;-41
2022/01/18 13:36:21;;;;;;;7.17;5.47;;;16.50;44.50;;;;;;5114170;28;20465;-41
2022/01/18 13:38:47;;;;;;;7.13;4.97;;;18.80;42.90;;;;;;5111216;28;20789;-42
2022/01/18 13:41:13;;;;;;;6.47;5.17;;;21.30;40.70;;;;;;5111712;28;20403;-41
2022/01/18 13:43:39;;;;;;;5.50;4.87;;;23.30;37.20;;;;;;5112630;28;20539;-41
2022/01/18 13:46:04;;;;;;;8.00;5.07;;;23.60;34.80;;;;;;5095490;28;20167;-41
2022/01/18 13:48:32;;;;;;;4.00;3.70;;;23.00;34.00;;;;;;5114297;28;20184;-42
2022/01/18 13:51:07;;;;;;;5.80;5.00;;;22.00;34.50;;;;;;5097057;28;20193;-42
2022/01/18 13:53:36;;;;;;;6.63;4.30;;;20.80;35.00;;;;;;5113956;28;20436;-42
2022/01/18 13:56:17;;;;;;;5.10;4.60;;;19.70;35.80;;;;;;5115524;28;20406;-40
2022/01/18 13:58:48;;;;;;;5.53;4.23;;;18.50;37.10;;;;;;5097988;28;20430;-40
2022/01/18 14:01:26;;;;;;;7.00;5.40;;;17.50;38.00;;;;;;5116253;28;20421;-40
2022/01/18 14:04:00;;;;;;;6.23;5.30;;;16.70;39.00;;;;;;5115450;28;20461;-42
2022/01/18 14:06:37;;;;;;;7.63;4.97;;;16.00;39.70;;;;;;5079143;28;20496;-38
2022/01/18 14:09:04;;;;;;;8.20;4.57;;;15.40;40.40;;;;;;5098612;28;20426;-43
2022/01/18 14:11:33;;;;;;;8.67;5.20;;;14.90;41.20;;;;;;5097466;28;20410;-41
2022/01/18 14:14:01;;;;;;;5.80;4.80;;;14.50;41.80;;;;;;5114946;28;20410;-41